Eldorado, Wisconsin
Current Conditions -  °F | °C
As of 5:53 AM on Sunday 21 Dec 2014 (Local Time) from KFLD Reporting Station
Haze Haze  
Wind Chill: 23°   Ceiling: 900
Heat Index: 31°   Visibility: 6mi
Dew Point: 27°   Wind: 9mph
Humidity: 85%   Direction: 170°S
Pressure: 30.15"   Gusts: NA
Location:  43.82°N, 88.62°W
Report Text: KFLD 211153Z AUTO 17008KT 6SM BR BKN009 OVC031 M01/M03 A3015 RMK AO2 SLP220 T10061028 11006 21011 56005
Loading
Personal Weather Stations






























Interactive Weather Map New forecast layout! Learn more

10-Day Weather Forecast

Advertisements
Track Severe Weather on mobile